Time;durP1;ratioP1;P1;durP2;ratioP2;P2;SDS_P1;SDS_P2;PMS_P1;PMS_P2;Temp;Humidity;BMP_temperature;BMP_pressure;BME280_temperature;BME280_humidity;BME280_pressure;Samples;Min_cycle;Max_cycle;Signal;HPM_P1;HPM_P2
2023/10/19 00:00:33;;;;;;;8.90;6.43;;;;;;;;;;5009408;28;20403;-68
2023/10/19 00:03:02;;;;;;;8.82;5.78;;;;;;;;;;5009463;28;20143;-68
2023/10/19 00:05:29;;;;;;;7.55;5.82;;;;;;;;;;5007559;28;20103;-69
2023/10/19 00:07:57;;;;;;;8.55;5.90;;;;;;;;;;5013130;28;20133;-69
2023/10/19 00:10:25;;;;;;;8.93;6.70;;;;;;;;;;5010208;28;20064;-69
2023/10/19 00:13:00;;;;;;;11.45;7.75;;;;;;;;;;5007485;28;20068;-67
2023/10/19 00:15:31;;;;;;;10.10;6.50;;;;;;;;;;5004960;28;20084;-66
2023/10/19 00:17:59;;;;;;;12.63;6.63;;;;;;;;;;5005764;28;20052;-67
2023/10/19 00:20:36;;;;;;;18.23;6.93;;;;;;;;;;5007405;28;20061;-67
2023/10/19 00:23:05;;;;;;;8.70;6.60;;;;;;;;;;5005887;28;20771;-68
2023/10/19 00:25:34;;;;;;;8.52;5.57;;;;;;;;;;5007742;28;20046;-67
2023/10/19 00:28:03;;;;;;;8.02;5.28;;;;;;;;;;5012222;28;20041;-67
2023/10/19 00:30:32;;;;;;;8.38;5.75;;;;;;;;;;5005791;28;20822;-67
2023/10/19 00:33:03;;;;;;;10.07;5.30;;;;;;;;;;5009047;28;20056;-68
2023/10/19 00:35:41;;;;;;;8.55;5.85;;;;;;;;;;5010218;28;20038;-68
2023/10/19 00:40:53;;;;;;;8.90;5.78;;;;;;;;;;5003722;28;20403;-68
2023/10/19 00:43:36;;;;;;;6.15;4.63;;;;;;;;;;5005959;28;20841;-68
2023/10/19 00:48:41;;;;;;;6.80;5.20;;;;;;;;;;5004476;28;20037;-66
2023/10/19 00:51:08;;;;;;;6.45;4.97;;;;;;;;;;4999533;28;20044;-66
2023/10/19 00:53:39;;;;;;;5.95;4.85;;;;;;;;;;5000808;28;20044;-66
2023/10/19 00:56:09;;;;;;;7.80;4.97;;;;;;;;;;5005645;28;20115;-66
2023/10/19 00:58:36;;;;;;;9.35;5.80;;;;;;;;;;5002473;28;20064;-66
2023/10/19 01:01:05;;;;;;;6.13;4.63;;;;;;;;;;5005467;28;20038;-66
2023/10/19 01:03:35;;;;;;;9.77;5.10;;;;;;;;;;4998935;28;20037;-67
2023/10/19 01:06:05;;;;;;;7.72;5.00;;;;;;;;;;5001230;28;20038;-67
2023/10/19 01:08:41;;;;;;;8.35;5.40;;;;;;;;;;5004801;28;20050;-67
2023/10/19 01:11:10;;;;;;;8.05;5.65;;;;;;;;;;5001740;28;20034;-67
2023/10/19 01:13:36;;;;;;;8.60;5.47;;;;;;;;;;5000827;28;20120;-67
2023/10/19 01:16:04;;;;;;;8.30;6.40;;;;;;;;;;5003489;28;20467;-66
2023/10/19 01:18:33;;;;;;;6.40;5.05;;;;;;;;;;5003161;28;20108;-68
2023/10/19 01:21:04;;;;;;;9.27;6.05;;;;;;;;;;4998462;28;20037;-67
2023/10/19 01:23:31;;;;;;;9.30;5.80;;;;;;;;;;5003140;28;20041;-67
2023/10/19 01:28:28;;;;;;;8.07;5.70;;;;;;;;;;5000405;28;20049;-67
2023/10/19 01:30:54;;;;;;;8.23;5.28;;;;;;;;;;5002768;28;20197;-67
2023/10/19 01:33:22;;;;;;;14.73;6.00;;;;;;;;;;5000421;28;20041;-67
2023/10/19 01:38:34;;;;;;;13.48;9.57;;;;;;;;;;4991521;28;20103;-67
2023/10/19 01:41:13;;;;;;;7.13;5.82;;;;;;;;;;4994768;28;20045;-67
2023/10/19 01:43:42;;;;;;;8.18;5.97;;;;;;;;;;4989776;28;20160;-68
2023/10/19 01:46:12;;;;;;;8.05;6.07;;;;;;;;;;4998370;28;20079;-66
2023/10/19 01:48:42;;;;;;;7.45;6.18;;;;;;;;;;4998184;28;20037;-67
2023/10/19 01:51:13;;;;;;;7.75;6.20;;;;;;;;;;4992710;28;20025;-67
2023/10/19 01:53:40;;;;;;;8.75;5.72;;;;;;;;;;4995628;28;20050;-67
2023/10/19 01:56:09;;;;;;;8.85;7.80;;;;;;;;;;5000218;28;20050;-67
2023/10/19 01:58:36;;;;;;;8.90;6.85;;;;;;;;;;5003347;28;20644;-67
2023/10/19 02:01:07;;;;;;;6.75;5.95;;;;;;;;;;5005549;28;20824;-67
2023/10/19 02:03:35;;;;;;;9.07;5.40;;;;;;;;;;5008155;28;20045;-67
2023/10/19 02:06:10;;;;;;;7.93;6.40;;;;;;;;;;5006903;28;20038;-67
2023/10/19 02:08:38;;;;;;;8.43;6.00;;;;;;;;;;5003985;28;20033;-67
2023/10/19 02:11:09;;;;;;;8.00;6.20;;;;;;;;;;4999442;28;20125;-67
2023/10/19 02:13:36;;;;;;;7.97;5.55;;;;;;;;;;4993772;28;20148;-67
2023/10/19 02:16:02;;;;;;;8.23;5.80;;;;;;;;;;5003629;28;20084;-67
2023/10/19 02:18:28;;;;;;;8.75;6.55;;;;;;;;;;5000326;28;20037;-67
2023/10/19 02:20:56;;;;;;;7.28;5.75;;;;;;;;;;5003397;28;20037;-67
2023/10/19 02:23:22;;;;;;;12.07;6.90;;;;;;;;;;5002459;28;20042;-67
2023/10/19 02:25:49;;;;;;;10.48;6.40;;;;;;;;;;5004847;28;20578;-67
2023/10/19 02:28:15;;;;;;;9.10;5.95;;;;;;;;;;5001038;28;20033;-67
2023/10/19 02:30:42;;;;;;;8.15;6.28;;;;;;;;;;5001204;28;20096;-67
2023/10/19 02:33:08;;;;;;;8.70;6.25;;;;;;;;;;5005490;28;20044;-67
2023/10/19 02:35:35;;;;;;;9.43;5.97;;;;;;;;;;5009163;28;20033;-67
2023/10/19 02:38:01;;;;;;;9.73;6.18;;;;;;;;;;5001277;28;20163;-67
2023/10/19 02:40:31;;;;;;;8.00;6.07;;;;;;;;;;5006581;28;20037;-67
2023/10/19 02:42:57;;;;;;;7.75;6.07;;;;;;;;;;5001558;28;20164;-67
2023/10/19 02:45:23;;;;;;;11.80;6.60;;;;;;;;;;5004783;28;20034;-67
2023/10/19 02:47:50;;;;;;;8.80;6.70;;;;;;;;;;4999198;28;20037;-67
2023/10/19 02:50:22;;;;;;;7.20;5.65;;;;;;;;;;5009413;28;21420;-67
2023/10/19 02:52:49;;;;;;;9.82;6.97;;;;;;;;;;5006208;28;20049;-67
2023/10/19 02:55:19;;;;;;;9.98;6.72;;;;;;;;;;5006135;28;20046;-67
2023/10/19 02:57:46;;;;;;;13.20;8.77;;;;;;;;;;5002131;28;20050;-67
2023/10/19 03:00:14;;;;;;;14.18;10.55;;;;;;;;;;4972738;28;20117;-67
2023/10/19 03:02:40;;;;;;;15.18;9.63;;;;;;;;;;4983731;28;20116;-67
2023/10/19 03:05:14;;;;;;;16.55;10.48;;;;;;;;;;4986822;28;20041;-68
2023/10/19 03:07:41;;;;;;;21.67;15.85;;;;;;;;;;4984410;28;22064;-68
2023/10/19 03:10:07;;;;;;;12.75;9.20;;;;;;;;;;4977279;28;20538;-68
2023/10/19 03:12:33;;;;;;;10.32;8.25;;;;;;;;;;4985408;28;20047;-67
2023/10/19 03:15:00;;;;;;;11.35;8.15;;;;;;;;;;4985414;28;20034;-68
2023/10/19 03:17:28;;;;;;;9.93;7.70;;;;;;;;;;4986530;28;20038;-68
2023/10/19 03:19:55;;;;;;;8.60;7.25;;;;;;;;;;4988253;28;20034;-68
2023/10/19 03:22:21;;;;;;;10.02;7.25;;;;;;;;;;4977201;28;21854;-67
2023/10/19 03:24:47;;;;;;;10.52;6.63;;;;;;;;;;4984249;28;20035;-68
2023/10/19 03:27:23;;;;;;;8.45;7.03;;;;;;;;;;4978216;28;20923;-68
2023/10/19 03:30:14;;;;;;;9.30;7.00;;;;;;;;;;4987055;28;20072;-67
2023/10/19 03:32:40;;;;;;;9.15;7.55;;;;;;;;;;4986309;28;20045;-67
2023/10/19 03:35:07;;;;;;;9.23;7.53;;;;;;;;;;4988346;28;20349;-68
2023/10/19 03:37:36;;;;;;;8.85;7.10;;;;;;;;;;4983818;28;20038;-67
2023/10/19 03:40:07;;;;;;;10.80;8.80;;;;;;;;;;4983719;28;20045;-68
2023/10/19 03:42:33;;;;;;;14.30;11.05;;;;;;;;;;4983343;28;20039;-68
2023/10/19 03:45:02;;;;;;;8.70;7.68;;;;;;;;;;4987201;28;20037;-67
2023/10/19 03:47:34;;;;;;;12.57;8.65;;;;;;;;;;4982574;28;20046;-68
2023/10/19 03:50:06;;;;;;;18.48;11.50;;;;;;;;;;4981095;28;20038;-67
2023/10/19 03:52:32;;;;;;;11.02;8.82;;;;;;;;;;4983866;28;20169;-67
2023/10/19 03:54:59;;;;;;;12.25;8.85;;;;;;;;;;4982956;28;20403;-67
2023/10/19 03:57:29;;;;;;;11.63;9.40;;;;;;;;;;4984168;28;20053;-68
2023/10/19 03:59:58;;;;;;;14.18;10.10;;;;;;;;;;5002026;28;20079;-67
2023/10/19 04:02:28;;;;;;;17.13;11.70;;;;;;;;;;4998853;28;20148;-69
2023/10/19 04:04:55;;;;;;;17.73;13.38;;;;;;;;;;5006033;28;20041;-68
2023/10/19 04:07:21;;;;;;;16.75;12.90;;;;;;;;;;4999312;28;20125;-68
2023/10/19 04:10:09;;;;;;;14.32;12.02;;;;;;;;;;5002643;28;20139;-68
2023/10/19 04:12:36;;;;;;;12.68;9.90;;;;;;;;;;4996463;28;20049;-67
2023/10/19 04:15:15;;;;;;;16.48;10.52;;;;;;;;;;5001685;28;20065;-67
2023/10/19 04:17:48;;;;;;;13.98;10.55;;;;;;;;;;5003066;28;20168;-68
2023/10/19 04:22:47;;;;;;;12.43;10.30;;;;;;;;;;5006433;28;20778;-68
2023/10/19 04:25:15;;;;;;;12.23;10.73;;;;;;;;;;5006986;28;20120;-68
2023/10/19 04:27:42;;;;;;;16.10;10.93;;;;;;;;;;5009639;28;20081;-68
2023/10/19 04:30:15;;;;;;;14.32;11.23;;;;;;;;;;5009401;28;20598;-68
2023/10/19 04:32:42;;;;;;;15.82;11.18;;;;;;;;;;5006649;28;20750;-66
2023/10/19 04:35:09;;;;;;;18.05;11.65;;;;;;;;;;5007584;28;20037;-66
2023/10/19 04:37:35;;;;;;;14.10;11.25;;;;;;;;;;4999489;28;20042;-66
2023/10/19 04:40:02;;;;;;;16.65;10.90;;;;;;;;;;5008959;28;20052;-66
2023/10/19 04:42:28;;;;;;;12.68;10.35;;;;;;;;;;5006245;28;20037;-66
2023/10/19 04:44:57;;;;;;;14.18;11.30;;;;;;;;;;5011251;28;20092;-66
2023/10/19 04:47:23;;;;;;;16.65;10.93;;;;;;;;;;5010071;28;20069;-67
2023/10/19 04:49:49;;;;;;;15.80;12.15;;;;;;;;;;5017183;28;20041;-66
2023/10/19 04:52:15;;;;;;;17.52;11.27;;;;;;;;;;5008357;28;21330;-66
2023/10/19 04:54:42;;;;;;;14.65;11.68;;;;;;;;;;5008509;28;20142;-66
2023/10/19 04:57:08;;;;;;;16.27;12.05;;;;;;;;;;5016095;28;20045;-70
2023/10/19 04:59:34;;;;;;;15.25;13.18;;;;;;;;;;4997888;28;20145;-66
2023/10/19 05:02:04;;;;;;;17.33;13.52;;;;;;;;;;4988370;28;20034;-69
2023/10/19 05:04:30;;;;;;;16.25;12.32;;;;;;;;;;4985411;28;20073;-67
2023/10/19 05:06:56;;;;;;;14.40;11.73;;;;;;;;;;4989891;28;20125;-66
2023/10/19 05:09:22;;;;;;;18.15;13.38;;;;;;;;;;4990007;28;20125;-67
2023/10/19 05:11:48;;;;;;;15.23;12.43;;;;;;;;;;4994178;28;20050;-67
2023/10/19 05:14:14;;;;;;;14.88;12.10;;;;;;;;;;4990838;28;20113;-66
2023/10/19 05:16:40;;;;;;;15.85;11.98;;;;;;;;;;4986711;28;20040;-66
2023/10/19 05:19:06;;;;;;;15.98;12.43;;;;;;;;;;4995411;28;20034;-66
2023/10/19 05:21:33;;;;;;;15.70;12.20;;;;;;;;;;4996329;28;20052;-67
2023/10/19 05:24:02;;;;;;;15.07;13.18;;;;;;;;;;4992305;28;22651;-71
2023/10/19 05:26:28;;;;;;;16.35;12.10;;;;;;;;;;4994109;28;20094;-69
2023/10/19 05:28:54;;;;;;;14.88;11.95;;;;;;;;;;4991979;28;20045;-69
2023/10/19 05:31:21;;;;;;;13.70;11.45;;;;;;;;;;4984062;28;20403;-68
2023/10/19 05:33:50;;;;;;;15.50;11.80;;;;;;;;;;4990188;28;20039;-71
2023/10/19 05:36:16;;;;;;;15.68;11.38;;;;;;;;;;4983979;28;20048;-68
2023/10/19 05:38:43;;;;;;;14.45;11.20;;;;;;;;;;4984678;28;20018;-68
2023/10/19 05:41:10;;;;;;;12.57;10.65;;;;;;;;;;4977244;28;20037;-68
2023/10/19 05:43:36;;;;;;;14.55;11.43;;;;;;;;;;4977340;28;20073;-68
2023/10/19 05:46:03;;;;;;;13.60;9.73;;;;;;;;;;4989300;28;20085;-68
2023/10/19 05:48:29;;;;;;;12.25;9.52;;;;;;;;;;4992814;28;20511;-68
2023/10/19 05:50:55;;;;;;;11.48;9.63;;;;;;;;;;4990970;28;21398;-68
2023/10/19 05:53:22;;;;;;;13.90;10.30;;;;;;;;;;4992935;28;20128;-68
2023/10/19 05:55:49;;;;;;;11.60;9.23;;;;;;;;;;4994085;28;20076;-68
2023/10/19 05:58:15;;;;;;;12.18;9.60;;;;;;;;;;5002198;28;20036;-68
2023/10/19 06:00:41;;;;;;;11.48;9.82;;;;;;;;;;5011189;28;20277;-68
2023/10/19 06:03:07;;;;;;;13.35;9.38;;;;;;;;;;5010822;28;20068;-68
2023/10/19 06:05:33;;;;;;;12.38;10.18;;;;;;;;;;5017655;28;20119;-68
2023/10/19 06:08:00;;;;;;;12.30;10.57;;;;;;;;;;5007599;28;20021;-68
2023/10/19 06:10:27;;;;;;;13.75;10.02;;;;;;;;;;5007499;28;20037;-68
2023/10/19 06:12:53;;;;;;;12.35;9.38;;;;;;;;;;5011756;28;20094;-68
2023/10/19 06:15:21;;;;;;;13.02;10.25;;;;;;;;;;5015700;28;20105;-68
2023/10/19 06:17:47;;;;;;;14.07;10.80;;;;;;;;;;5008614;28;20041;-68
2023/10/19 06:20:23;;;;;;;12.73;9.85;;;;;;;;;;5014610;28;20047;-68
2023/10/19 06:22:50;;;;;;;14.23;10.77;;;;;;;;;;5008507;28;20068;-68
2023/10/19 06:25:23;;;;;;;12.90;10.48;;;;;;;;;;5020096;28;20116;-68
2023/10/19 06:27:50;;;;;;;14.38;10.82;;;;;;;;;;5014874;28;20733;-68
2023/10/19 06:30:18;;;;;;;14.63;11.75;;;;;;;;;;5008481;28;20041;-67
2023/10/19 06:32:51;;;;;;;14.88;12.02;;;;;;;;;;5002132;28;20069;-67
2023/10/19 06:35:18;;;;;;;15.00;11.88;;;;;;;;;;5011527;28;20773;-68
2023/10/19 06:37:44;;;;;;;16.85;11.95;;;;;;;;;;5013489;28;20053;-67
2023/10/19 06:40:11;;;;;;;14.48;11.82;;;;;;;;;;5013696;28;20708;-68
2023/10/19 06:42:38;;;;;;;14.80;11.32;;;;;;;;;;5013142;28;20143;-68
2023/10/19 06:45:04;;;;;;;14.80;12.20;;;;;;;;;;5011891;28;20048;-68
2023/10/19 06:47:30;;;;;;;16.30;12.02;;;;;;;;;;5011601;28;20041;-68
2023/10/19 06:49:56;;;;;;;14.80;12.68;;;;;;;;;;5013122;28;20108;-68
2023/10/19 06:52:22;;;;;;;15.95;12.93;;;;;;;;;;5009856;28;20052;-68
2023/10/19 06:54:49;;;;;;;15.60;12.30;;;;;;;;;;5012811;28;20383;-68
2023/10/19 06:57:15;;;;;;;14.98;12.35;;;;;;;;;;5011502;28;20038;-68
2023/10/19 06:59:41;;;;;;;14.68;13.13;;;;;;;;;;4998606;28;20529;-68
2023/10/19 07:02:07;;;;;;;15.52;12.98;;;;;;;;;;4983453;28;20045;-68
2023/10/19 07:04:33;;;;;;;18.45;13.27;;;;;;;;;;4991928;28;20454;-68
2023/10/19 07:07:00;;;;;;;14.48;12.15;;;;;;;;;;4994009;28;20462;-68
2023/10/19 07:09:26;;;;;;;15.65;12.27;;;;;;;;;;4983966;28;20046;-67
2023/10/19 07:11:54;;;;;;;17.10;12.60;;;;;;;;;;4987175;28;20074;-68
2023/10/19 07:14:22;;;;;;;14.32;12.00;;;;;;;;;;4987902;28;20496;-67
2023/10/19 07:16:48;;;;;;;20.77;14.07;;;;;;;;;;4991058;28;20519;-67
2023/10/19 07:19:14;;;;;;;16.83;12.63;;;;;;;;;;4987862;28;20658;-68
2023/10/19 07:21:42;;;;;;;14.68;12.55;;;;;;;;;;4989172;28;20025;-69
2023/10/19 07:24:11;;;;;;;20.27;13.95;;;;;;;;;;4996541;28;20037;-68
2023/10/19 07:26:51;;;;;;;16.92;13.70;;;;;;;;;;4986569;28;20073;-68
2023/10/19 07:29:18;;;;;;;18.05;13.85;;;;;;;;;;4989250;28;20064;-68
2023/10/19 07:31:45;;;;;;;15.73;12.63;;;;;;;;;;4988759;28;20045;-68
2023/10/19 07:34:15;;;;;;;18.08;14.13;;;;;;;;;;4992842;28;20084;-68
2023/10/19 07:36:42;;;;;;;17.25;14.35;;;;;;;;;;4990506;28;20041;-68
2023/10/19 07:39:13;;;;;;;19.40;14.18;;;;;;;;;;4991111;28;20678;-68
2023/10/19 07:41:40;;;;;;;19.85;13.93;;;;;;;;;;4986459;28;20443;-68
2023/10/19 07:44:06;;;;;;;17.45;14.07;;;;;;;;;;4982894;28;20098;-68
2023/10/19 07:46:32;;;;;;;18.00;13.93;;;;;;;;;;4992667;28;20038;-68
2023/10/19 07:49:00;;;;;;;17.65;14.02;;;;;;;;;;4981517;28;20035;-67
2023/10/19 07:51:26;;;;;;;19.92;14.82;;;;;;;;;;4979266;28;20143;-66
2023/10/19 07:53:53;;;;;;;16.92;13.77;;;;;;;;;;4983502;28;20135;-68
2023/10/19 07:56:19;;;;;;;19.30;14.55;;;;;;;;;;4968346;28;20054;-68
2023/10/19 07:58:45;;;;;;;17.38;14.80;;;;;;;;;;5000288;28;20053;-68
2023/10/19 08:01:12;;;;;;;18.13;13.35;;;;;;;;;;5009911;28;20033;-67
2023/10/19 08:03:38;;;;;;;16.40;12.40;;;;;;;;;;4987559;28;20048;-67
2023/10/19 08:06:04;;;;;;;16.92;13.23;;;;;;;;;;5009139;28;20038;-67
2023/10/19 08:08:34;;;;;;;16.67;13.50;;;;;;;;;;5008084;28;22026;-67
2023/10/19 08:11:00;;;;;;;16.27;13.05;;;;;;;;;;5000086;28;20120;-67
2023/10/19 08:13:27;;;;;;;16.98;13.43;;;;;;;;;;5011209;28;20128;-67
2023/10/19 08:15:53;;;;;;;16.02;13.45;;;;;;;;;;5011814;28;20045;-67
2023/10/19 08:18:20;;;;;;;18.08;14.05;;;;;;;;;;5018990;28;20039;-67
2023/10/19 08:20:46;;;;;;;16.70;14.32;;;;;;;;;;5006931;28;20045;-67
2023/10/19 08:23:23;;;;;;;16.67;13.88;;;;;;;;;;5014306;28;20037;-67
2023/10/19 08:25:50;;;;;;;19.83;15.60;;;;;;;;;;5010749;28;20044;-67
2023/10/19 08:28:17;;;;;;;17.65;14.93;;;;;;;;;;5013664;28;20111;-68
2023/10/19 08:30:44;;;;;;;17.95;15.60;;;;;;;;;;5009548;28;20044;-68
2023/10/19 08:33:13;;;;;;;18.92;15.00;;;;;;;;;;5006718;28;20112;-68
2023/10/19 08:35:39;;;;;;;23.92;14.48;;;;;;;;;;5002968;28;20161;-69
2023/10/19 08:38:11;;;;;;;18.38;13.88;;;;;;;;;;5009745;28;20083;-68
2023/10/19 08:40:38;;;;;;;17.63;14.75;;;;;;;;;;5006171;28;20041;-69
2023/10/19 08:43:04;;;;;;;19.50;14.50;;;;;;;;;;5013823;28;20045;-69
2023/10/19 08:45:30;;;;;;;19.58;14.43;;;;;;;;;;5011743;28;20423;-68
2023/10/19 08:47:59;;;;;;;19.85;15.07;;;;;;;;;;5016621;28;20132;-68
2023/10/19 08:50:26;;;;;;;20.15;14.90;;;;;;;;;;5003841;28;20037;-68
2023/10/19 08:52:53;;;;;;;20.77;15.05;;;;;;;;;;4993034;28;20069;-68
2023/10/19 08:55:20;;;;;;;18.13;15.32;;;;;;;;;;5002339;28;20041;-68
2023/10/19 08:57:49;;;;;;;19.27;14.27;;;;;;;;;;5014706;28;20160;-68
2023/10/19 09:00:18;;;;;;;18.73;14.73;;;;;;;;;;5010937;28;20044;-68
2023/10/19 09:02:45;;;;;;;17.63;14.98;;;;;;;;;;5005165;28;20069;-68
2023/10/19 09:05:19;;;;;;;19.48;14.70;;;;;;;;;;5008948;28;20743;-66
2023/10/19 09:07:47;;;;;;;19.67;15.10;;;;;;;;;;5011577;28;20072;-67
2023/10/19 09:10:16;;;;;;;18.00;14.52;;;;;;;;;;5004731;28;20037;-67
2023/10/19 09:12:43;;;;;;;17.92;14.63;;;;;;;;;;5012312;28;20555;-67
2023/10/19 09:15:23;;;;;;;17.75;14.73;;;;;;;;;;5013212;28;20041;-67
2023/10/19 09:17:49;;;;;;;18.92;15.63;;;;;;;;;;5001891;28;20520;-67
2023/10/19 09:20:27;;;;;;;20.52;15.80;;;;;;;;;;5012098;28;20048;-67
2023/10/19 09:22:53;;;;;;;19.08;15.45;;;;;;;;;;5008567;28;20030;-67
2023/10/19 09:25:19;;;;;;;18.55;15.63;;;;;;;;;;5001615;28;20041;-67
2023/10/19 09:27:45;;;;;;;19.88;14.55;;;;;;;;;;5005959;28;20053;-67
2023/10/19 09:30:13;;;;;;;18.00;14.77;;;;;;;;;;4991403;28;20546;-67
2023/10/19 09:32:40;;;;;;;19.90;14.80;;;;;;;;;;4996502;28;20865;-68
2023/10/19 09:35:08;;;;;;;16.95;13.95;;;;;;;;;;5002276;28;20040;-67
2023/10/19 09:37:35;;;;;;;16.40;12.85;;;;;;;;;;5011770;28;20037;-67
2023/10/19 09:40:01;;;;;;;21.45;13.45;;;;;;;;;;4989632;28;20046;-67
2023/10/19 09:42:28;;;;;;;16.52;13.57;;;;;;;;;;4999264;28;20037;-67
2023/10/19 09:45:05;;;;;;;16.33;13.27;;;;;;;;;;5006885;28;20038;-68
2023/10/19 09:47:35;;;;;;;18.23;14.30;;;;;;;;;;5004015;28;20100;-67
2023/10/19 09:50:01;;;;;;;17.83;13.13;;;;;;;;;;5008854;28;20170;-68
2023/10/19 09:52:28;;;;;;;16.20;13.32;;;;;;;;;;5005711;28;20053;-67
2023/10/19 09:55:04;;;;;;;17.75;13.18;;;;;;;;;;5001832;28;20045;-67
2023/10/19 09:57:38;;;;;;;17.60;13.65;;;;;;;;;;5008675;28;20041;-68
2023/10/19 10:00:23;;;;;;;17.10;12.77;;;;;;;;;;5009892;28;20136;-67
2023/10/19 10:02:50;;;;;;;16.80;13.75;;;;;;;;;;5009349;28;20049;-67
2023/10/19 10:05:39;;;;;;;18.30;13.95;;;;;;;;;;5011876;28;20041;-68
2023/10/19 10:08:21;;;;;;;16.58;13.73;;;;;;;;;;5002190;28;20045;-68
2023/10/19 10:10:51;;;;;;;18.33;13.85;;;;;;;;;;4997091;28;20116;-68
2023/10/19 10:13:26;;;;;;;18.15;13.13;;;;;;;;;;4989337;28;20116;-68
2023/10/19 10:15:57;;;;;;;16.20;13.18;;;;;;;;;;5006120;28;20036;-69
2023/10/19 10:18:27;;;;;;;18.80;14.07;;;;;;;;;;5008232;28;20173;-69
2023/10/19 10:21:08;;;;;;;17.27;13.88;;;;;;;;;;5009073;28;20498;-69
2023/10/19 10:23:39;;;;;;;18.33;13.93;;;;;;;;;;5007590;28;20040;-69
2023/10/19 10:26:08;;;;;;;21.58;15.60;;;;;;;;;;5000408;28;20041;-69
2023/10/19 10:28:35;;;;;;;21.10;16.35;;;;;;;;;;4998200;28;20034;-69
2023/10/19 10:31:08;;;;;;;22.33;15.85;;;;;;;;;;4997214;28;20026;-69
2023/10/19 10:33:38;;;;;;;22.30;15.27;;;;;;;;;;5007432;28;20834;-70
2023/10/19 10:36:06;;;;;;;20.70;16.02;;;;;;;;;;5014928;28;20129;-69
2023/10/19 10:38:35;;;;;;;20.90;15.57;;;;;;;;;;5007977;28;20060;-69
2023/10/19 10:41:01;;;;;;;21.95;16.15;;;;;;;;;;5000628;28;20080;-69
2023/10/19 10:43:27;;;;;;;21.98;16.75;;;;;;;;;;5007176;28;20037;-69
2023/10/19 10:46:03;;;;;;;23.10;17.05;;;;;;;;;;5004395;28;20033;-69
2023/10/19 10:48:29;;;;;;;23.92;16.75;;;;;;;;;;4992469;28;20036;-69
2023/10/19 10:50:55;;;;;;;23.85;16.65;;;;;;;;;;4991265;28;20034;-69
2023/10/19 10:53:26;;;;;;;70.55;17.90;;;;;;;;;;4996771;28;20060;-70
2023/10/19 10:55:53;;;;;;;24.00;16.95;;;;;;;;;;5010325;28;20050;-69
2023/10/19 10:58:19;;;;;;;23.10;17.13;;;;;;;;;;5006609;28;20057;-69
2023/10/19 11:00:47;;;;;;;22.23;16.70;;;;;;;;;;5000854;28;20111;-69
2023/10/19 11:03:13;;;;;;;24.17;17.30;;;9.70;99.90;;;;;;4999889;28;20038;-69
2023/10/19 11:05:39;;;;;;;25.60;16.88;;;10.00;99.90;;;;;;5005146;28;20162;-67
2023/10/19 11:08:20;;;;;;;24.25;17.17;;;10.00;99.90;;;;;;4991590;28;20443;-69
2023/10/19 11:10:47;;;;;;;24.33;18.08;;;9.90;99.90;;;;;;5005682;28;20049;-69
2023/10/19 11:13:15;;;;;;;23.90;18.13;;;9.80;99.90;;;;;;4994867;28;20132;-67
2023/10/19 11:15:56;;;;;;;23.23;17.73;;;9.80;99.90;;;;;;5002682;28;20045;-67
2023/10/19 11:18:29;;;;;;;23.20;17.80;;;9.90;99.90;;;;;;5003835;28;20037;-67
2023/10/19 11:20:56;;;;;;;26.50;17.60;;;9.70;99.90;;;;;;5006872;28;20237;-69
2023/10/19 11:23:44;;;;;;;25.63;19.25;;;9.80;99.90;;;;;;5005533;28;20029;-67
2023/10/19 11:26:11;;;;;;;25.80;18.45;;;9.80;99.90;;;;;;5016048;28;20052;-68
2023/10/19 11:28:47;;;;;;;28.27;19.63;;;9.80;99.90;;;;;;5008082;28;20112;-67
2023/10/19 11:31:15;;;;;;;25.90;19.92;;;9.80;99.90;;;;;;5012222;28;20046;-68
2023/10/19 11:33:43;;;;;;;25.75;18.90;;;9.80;99.90;;;;;;5002827;28;22481;-71
2023/10/19 11:36:09;;;;;;;28.42;19.63;;;9.90;99.90;;;;;;4992824;28;20116;-71
2023/10/19 11:38:35;;;;;;;30.95;21.23;;;9.90;99.90;;;;;;5005014;28;20514;-69
2023/10/19 11:41:03;;;;;;;27.08;20.60;;;9.90;99.90;;;;;;5010309;28;20034;-70
2023/10/19 11:43:28;;;;;;;28.48;20.17;;;9.90;99.90;;;;;;4996474;28;20045;-69
2023/10/19 11:45:54;;;;;;;27.45;19.77;;;9.90;99.90;;;;;;4993304;28;20047;-69
2023/10/19 11:48:20;;;;;;;27.58;19.38;;;9.90;99.90;;;;;;5009628;28;20037;-69
2023/10/19 11:50:47;;;;;;;28.35;20.48;;;9.90;99.90;;;;;;5012775;28;20092;-69
2023/10/19 11:53:13;;;;;;;28.08;20.73;;;9.90;99.90;;;;;;5015030;28;20045;-69
2023/10/19 11:55:41;;;;;;;26.35;20.10;;;10.00;99.90;;;;;;5017445;28;20044;-69
2023/10/19 11:58:11;;;;;;;27.83;20.00;;;10.00;99.90;;;;;;5017292;28;20049;-69
2023/10/19 12:00:37;;;;;;;28.02;20.55;;;10.00;99.90;;;;;;5009799;28;20428;-69
2023/10/19 12:03:06;;;;;;;31.42;21.63;;;10.00;99.90;;;;;;5006050;28;20176;-70
2023/10/19 12:05:32;;;;;;;27.52;20.25;;;10.00;99.90;;;;;;5001641;28;20080;-69
2023/10/19 12:07:57;;;;;;;30.02;21.40;;;10.00;99.90;;;;;;5006902;28;20920;-68
2023/10/19 12:10:35;;;;;;;27.48;19.60;;;10.00;99.90;;;;;;5008650;28;20116;-70
2023/10/19 12:13:02;;;;;;;28.60;21.05;;;10.10;99.90;;;;;;5008793;28;20066;-70
2023/10/19 12:15:28;;;;;;;29.23;20.73;;;10.10;99.90;;;;;;5004498;28;20040;-70
2023/10/19 12:17:54;;;;;;;28.85;20.55;;;10.10;99.90;;;;;;5006198;28;20635;-70
2023/10/19 12:20:21;;;;;;;28.85;20.13;;;10.10;99.90;;;;;;5006259;28;20036;-70
2023/10/19 12:22:47;;;;;;;29.13;20.75;;;10.10;99.90;;;;;;5006621;28;20049;-69
2023/10/19 12:25:14;;;;;;;30.23;22.00;;;10.20;99.90;;;;;;5010479;28;20033;-69
2023/10/19 12:27:40;;;;;;;30.00;20.73;;;10.20;99.90;;;;;;5017126;28;20029;-69
2023/10/19 12:30:16;;;;;;;34.75;22.95;;;10.10;99.90;;;;;;5015651;28;20032;-69
2023/10/19 12:32:43;;;;;;;26.98;20.60;;;10.10;99.90;;;;;;5014002;28;20050;-69
2023/10/19 12:35:11;;;;;;;28.45;21.80;;;10.20;99.90;;;;;;5017049;28;20042;-69
2023/10/19 12:37:46;;;;;;;30.73;21.73;;;10.20;99.90;;;;;;5017510;28;20044;-69
2023/10/19 12:40:28;;;;;;;29.75;22.67;;;10.30;99.90;;;;;;5000985;28;20640;-69
2023/10/19 12:42:55;;;;;;;34.88;23.73;;;10.30;99.90;;;;;;5013441;28;20113;-69
2023/10/19 12:45:25;;;;;;;32.05;22.23;;;10.30;99.90;;;;;;5015041;28;20116;-69
2023/10/19 12:47:54;;;;;;;29.10;22.52;;;10.30;99.90;;;;;;5018009;28;20029;-68
2023/10/19 12:50:22;;;;;;;30.83;22.45;;;10.30;99.90;;;;;;5030352;28;20689;-68
2023/10/19 12:52:51;;;;;;;29.38;20.38;;;10.30;99.90;;;;;;5012244;28;20056;-70
2023/10/19 12:55:18;;;;;;;30.23;19.92;;;10.20;99.90;;;;;;5016704;28;20566;-69
2023/10/19 12:57:43;;;;;;;26.13;18.70;;;10.20;99.90;;;;;;5013477;28;20065;-70
2023/10/19 13:03:03;;;;;;;22.48;17.75;;;10.30;99.90;;;;;;4995131;28;20539;-70
2023/10/19 13:05:33;;;;;;;24.30;17.23;;;10.20;99.90;;;;;;4990896;28;20403;-66
2023/10/19 13:07:59;;;;;;;25.35;16.25;;;10.20;99.90;;;;;;4995783;28;20032;-66
2023/10/19 13:10:32;;;;;;;20.55;15.48;;;10.10;99.90;;;;;;4988854;28;20033;-65
2023/10/19 13:13:05;;;;;;;20.98;16.00;;;10.20;99.90;;;;;;4984124;28;20046;-67
2023/10/19 13:15:36;;;;;;;154.43;23.98;;;10.10;99.90;;;;;;4994595;28;20802;-66
2023/10/19 13:18:03;;;;;;;26.92;15.32;;;10.20;99.90;;;;;;4983104;28;20046;-66
2023/10/19 13:20:33;;;;;;;18.05;14.50;;;10.20;99.90;;;;;;4987207;28;20113;-66
2023/10/19 13:23:04;;;;;;;17.08;13.10;;;10.10;99.90;;;;;;4994271;28;20068;-72
2023/10/19 13:25:41;;;;;;;14.10;12.60;;;10.20;99.90;;;;;;4995834;28;20043;-72
2023/10/19 13:28:11;;;;;;;13.43;11.98;;;10.10;99.90;;;;;;4991707;28;20041;-71
2023/10/19 13:30:47;;;;;;;14.65;12.05;;;10.10;99.90;;;;;;4994302;28;20044;-71
2023/10/19 13:33:14;;;;;;;153.65;21.80;;;10.10;99.90;;;;;;4990174;28;20053;-73
2023/10/19 13:35:41;;;;;;;27.08;12.90;;;10.10;99.90;;;;;;4996225;28;20077;-73
2023/10/19 13:38:08;;;;;;;14.20;10.98;;;10.10;99.90;;;;;;5002127;28;20040;-72
2023/10/19 13:40:38;;;;;;;12.80;11.32;;;10.10;99.90;;;;;;4998856;28;20159;-72
2023/10/19 13:43:06;;;;;;;13.38;11.15;;;10.10;99.90;;;;;;4997019;28;20431;-72
2023/10/19 13:45:35;;;;;;;19.98;12.20;;;10.10;99.90;;;;;;4995413;28;20794;-73
2023/10/19 13:48:05;;;;;;;41.58;18.15;;;10.10;99.90;;;;;;4986112;28;20041;-72
2023/10/19 13:50:34;;;;;;;17.58;12.00;;;10.10;99.90;;;;;;4995890;28;20045;-70
2023/10/19 13:53:00;;;;;;;44.17;26.00;;;10.10;99.90;;;;;;4998896;28;20102;-72
2023/10/19 13:55:29;;;;;;;92.75;42.28;;;10.10;99.90;;;;;;4994259;28;20649;-72
2023/10/19 13:57:55;;;;;;;52.83;20.83;;;10.10;99.90;;;;;;4991341;28;20917;-73
2023/10/19 14:01:04;;;;;;;15.75;11.55;;;10.10;99.90;;;;;;4997834;28;20341;-73
2023/10/19 14:03:13;;;;;;;19.77;15.50;;;10.10;99.90;;;;;;4985910;28;20046;-71
2023/10/19 14:05:47;;;;;;;13.30;10.57;;;10.10;99.90;;;;;;4994628;28;20065;-73
2023/10/19 14:08:13;;;;;;;12.43;11.13;;;10.10;99.90;;;;;;5000253;28;20038;-73
2023/10/19 14:10:41;;;;;;;13.52;11.05;;;10.10;99.90;;;;;;4985829;28;20044;-71
2023/10/19 14:13:11;;;;;;;35.38;25.73;;;10.10;99.90;;;;;;4996612;28;20030;-68
2023/10/19 14:15:37;;;;;;;46.05;35.47;;;10.00;99.90;;;;;;4994717;28;20037;-71
2023/10/19 14:18:03;;;;;;;19.42;14.95;;;10.00;99.90;;;;;;4995857;28;20044;-68